Time,TemperatureF,DewpointF,PressureIn,WindDirection,WindDirectionDegrees,WindSpeedMPH,WindSpeedGustMPH,Humidity,HourlyPrecipIn,Conditions,Clouds,dailyrainin,SoftwareType,DateUTC
2013-07-18 00:14:00,74.1,71.0,30.19,ESE,112,0.0,-999.0,90,-99.99,,,0.00,Acu-Link.com,2013-07-18 05:14:00,
2013-07-18 00:29:00,73.8,71.3,30.19,ESE,112,0.0,-999.0,92,-99.99,,,0.00,Acu-Link.com,2013-07-18 05:29:00,
2013-07-18 00:45:00,73.6,71.4,30.19,SSE,157,0.0,-999.0,93,-99.99,,,0.00,Acu-Link.com,2013-07-18 05:45:00,
2013-07-18 01:00:00,73.2,71.1,30.19,SSE,157,0.0,-999.0,93,-99.99,,,0.00,Acu-Link.com,2013-07-18 06:00:00,
2013-07-18 01:15:00,73.2,71.4,30.19,SE,135,0.0,-999.0,94,-99.99,,,0.00,Acu-Link.com,2013-07-18 06:15:00,
2013-07-18 01:30:00,72.9,71.6,30.19,SSE,157,0.0,-999.0,96,-99.99,,,0.00,Acu-Link.com,2013-07-18 06:30:00,
2013-07-18 01:46:00,72.7,72.1,30.19,SE,135,0.0,-999.0,98,-99.99,,,0.00,Acu-Link.com,2013-07-18 06:46:00,
2013-07-18 02:01:00,72.7,72.1,30.19,SSE,157,0.0,-999.0,98,-99.99,,,0.00,Acu-Link.com,2013-07-18 07:01:00,
2013-07-18 02:16:00,72.5,71.9,30.19,ESE,112,0.0,-999.0,98,-99.99,,,0.00,Acu-Link.com,2013-07-18 07:16:00,
2013-07-18 02:31:00,72.3,71.7,30.19,ESE,112,0.0,-999.0,98,-99.99,,,0.00,Acu-Link.com,2013-07-18 07:31:00,
2013-07-18 02:46:00,72.1,71.5,30.19,ESE,112,0.0,-999.0,98,-99.99,,,0.00,Acu-Link.com,2013-07-18 07:46:00,
2013-07-18 03:02:00,71.8,71.2,30.19,ESE,112,0.0,-999.0,98,-99.99,,,0.00,Acu-Link.com,2013-07-18 08:02:00,
2013-07-18 03:17:00,71.8,71.2,30.19,SE,135,0.0,-999.0,98,-99.99,,,0.00,Acu-Link.com,2013-07-18 08:17:00,
2013-07-18 03:32:00,71.6,71.0,30.18,ESE,112,0.0,-999.0,98,-99.99,,,0.00,Acu-Link.com,2013-07-18 08:32:00,
2013-07-18 03:47:00,71.2,70.6,30.18,SSE,157,0.0,-999.0,98,-99.99,,,0.00,Acu-Link.com,2013-07-18 08:47:00,
2013-07-18 04:02:00,71.1,70.5,30.18,SW,225,0.0,-999.0,98,-99.99,,,0.00,Acu-Link.com,2013-07-18 09:02:00,
2013-07-18 04:17:00,70.7,70.1,30.19,SE,135,0.0,-999.0,98,-99.99,,,0.00,Acu-Link.com,2013-07-18 09:17:00,
2013-07-18 04:33:00,70.9,70.3,30.18,SE,135,0.0,-999.0,98,-99.99,,,0.00,Acu-Link.com,2013-07-18 09:33:00,
2013-07-18 04:48:00,70.9,70.3,30.19,SSE,157,0.0,-999.0,98,-99.99,,,0.00,Acu-Link.com,2013-07-18 09:48:00,
2013-07-18 05:03:00,70.7,70.1,30.19,SSE,157,0.0,-999.0,98,-99.99,,,0.00,Acu-Link.com,2013-07-18 10:03:00,
2013-07-18 05:18:00,70.2,69.6,30.19,SSE,157,0.0,-999.0,98,-99.99,,,0.00,Acu-Link.com,2013-07-18 10:18:00,
2013-07-18 05:33:00,69.8,69.2,30.19,SE,135,0.0,-999.0,98,-99.99,,,0.00,Acu-Link.com,2013-07-18 10:33:00,
2013-07-18 05:49:00,69.8,69.2,30.19,SE,135,0.0,-999.0,98,-99.99,,,0.00,Acu-Link.com,2013-07-18 10:49:00,
2013-07-18 06:04:00,69.6,69.0,30.19,SSE,157,0.0,-999.0,98,-99.99,,,0.00,Acu-Link.com,2013-07-18 11:04:00,
2013-07-18 06:19:00,69.4,68.8,30.19,SE,135,0.0,-999.0,98,-99.99,,,0.00,Acu-Link.com,2013-07-18 11:19:00,
2013-07-18 06:34:00,69.6,69.0,30.19,ESE,112,0.0,-999.0,98,-99.99,,,0.00,Acu-Link.com,2013-07-18 11:34:00,
2013-07-18 06:49:00,69.6,69.0,30.19,ESE,112,0.0,-999.0,98,-99.99,,,0.00,Acu-Link.com,2013-07-18 11:49:00,
2013-07-18 07:05:00,70.0,69.4,30.19,NE,45,0.0,-999.0,98,-99.99,,,0.00,Acu-Link.com,2013-07-18 12:05:00,
2013-07-18 07:20:00,71.2,70.6,30.19,ENE,67,0.0,-999.0,98,-99.99,,,0.00,Acu-Link.com,2013-07-18 12:20:00,
2013-07-18 07:35:00,73.4,72.8,30.19,East,90,0.0,-999.0,98,-99.99,,,0.00,Acu-Link.com,2013-07-18 12:35:00,
2013-07-18 07:50:00,74.7,73.7,30.19,SSE,157,0.0,-999.0,97,-99.99,,,0.00,Acu-Link.com,2013-07-18 12:50:00,
2013-07-18 08:06:00,76.3,74.1,30.20,ESE,112,0.0,-999.0,93,-99.99,,,0.00,Acu-Link.com,2013-07-18 13:06:00,
2013-07-18 08:21:00,77.7,74.2,30.19,SSE,157,0.0,-999.0,89,-99.99,,,0.00,Acu-Link.com,2013-07-18 13:21:00,
2013-07-18 08:36:00,78.8,74.2,30.20,ESE,112,0.0,-999.0,86,-99.99,,,0.00,Acu-Link.com,2013-07-18 13:36:00,
2013-07-18 08:51:00,79.9,74.6,30.20,South,180,0.0,-999.0,84,-99.99,,,0.00,Acu-Link.com,2013-07-18 13:51:00,
2013-07-18 09:06:00,81.0,74.9,30.20,SE,135,1.6,-999.0,82,-99.99,,,0.00,Acu-Link.com,2013-07-18 14:06:00,
2013-07-18 09:22:00,78.1,74.2,30.20,SSE,157,0.0,-999.0,88,-99.99,,,0.00,Acu-Link.com,2013-07-18 14:22:00,
2013-07-18 09:37:00,79.0,74.8,30.20,ESE,112,1.1,-999.0,87,-99.99,,,0.00,Acu-Link.com,2013-07-18 14:37:00,
2013-07-18 09:52:00,80.2,74.6,30.19,ESE,112,0.0,-999.0,83,-99.99,,,0.00,Acu-Link.com,2013-07-18 14:52:00,
2013-07-18 10:07:00,79.9,73.5,30.19,SSE,157,5.1,-999.0,81,-99.99,,,0.00,Acu-Link.com,2013-07-18 15:07:00,
2013-07-18 10:22:00,81.1,73.6,30.18,SSW,202,6.3,-999.0,78,-99.99,,,0.00,Acu-Link.com,2013-07-18 15:22:00,
2013-07-18 10:38:00,82.8,74.0,30.18,SE,135,0.0,-999.0,75,-99.99,,,0.00,Acu-Link.com,2013-07-18 15:38:00,
2013-07-18 10:53:00,82.6,73.8,30.19,SSE,157,8.3,-999.0,75,-99.99,,,0.00,Acu-Link.com,2013-07-18 15:53:00,
2013-07-18 11:08:00,82.4,73.3,30.19,SSW,202,0.0,-999.0,74,-99.99,,,0.00,Acu-Link.com,2013-07-18 16:08:00,
2013-07-18 11:23:00,82.8,72.4,30.18,SSW,202,0.0,-999.0,71,-99.99,,,0.00,Acu-Link.com,2013-07-18 16:23:00,
2013-07-18 11:38:00,84.0,71.9,30.17,South,180,12.5,-999.0,67,-99.99,,,0.00,Acu-Link.com,2013-07-18 16:38:00,
2013-07-18 11:54:00,83.8,72.1,30.17,SSE,157,10.3,-999.0,68,-99.99,,,0.00,Acu-Link.com,2013-07-18 16:54:00,
2013-07-18 12:09:00,85.1,72.0,30.16,SSW,202,11.4,-999.0,65,-99.99,,,0.00,Acu-Link.com,2013-07-18 17:09:00,
2013-07-18 12:24:00,86.2,72.5,30.16,South,180,15.4,-999.0,64,-99.99,,,0.00,Acu-Link.com,2013-07-18 17:24:00,
2013-07-18 12:39:00,87.6,72.5,30.16,SSW,202,9.8,-999.0,61,-99.99,,,0.00,Acu-Link.com,2013-07-18 17:39:00,
2013-07-18 12:55:00,87.3,72.1,30.16,SW,225,9.8,-999.0,61,-99.99,,,0.00,Acu-Link.com,2013-07-18 17:55:00,
2013-07-18 13:10:00,86.9,70.8,30.15,SSE,157,13.4,-999.0,59,-99.99,,,0.00,Acu-Link.com,2013-07-18 18:10:00,
2013-07-18 13:25:00,87.3,71.2,30.15,SSW,202,14.1,-999.0,59,-99.99,,,0.00,Acu-Link.com,2013-07-18 18:25:00,
2013-07-18 13:40:00,87.6,71.0,30.14,South,180,11.9,-999.0,58,-99.99,,,0.00,Acu-Link.com,2013-07-18 18:40:00,
2013-07-18 13:55:00,88.0,70.3,30.14,SSE,157,8.9,-999.0,56,-99.99,,,0.00,Acu-Link.com,2013-07-18 18:55:00,
2013-07-18 14:11:00,86.9,70.3,30.13,SSW,202,6.7,-999.0,58,-99.99,,,0.00,Acu-Link.com,2013-07-18 19:11:00,
2013-07-18 14:26:00,88.9,71.6,30.12,SSW,202,9.8,-999.0,57,-99.99,,,0.00,Acu-Link.com,2013-07-18 19:26:00,
2013-07-18 14:41:00,89.1,70.8,30.12,SSW,202,11.0,-999.0,55,-99.99,,,0.00,Acu-Link.com,2013-07-18 19:41:00,
2013-07-18 14:56:00,88.9,70.6,30.11,South,180,11.4,-999.0,55,-99.99,,,0.00,Acu-Link.com,2013-07-18 19:56:00,
2013-07-18 15:11:00,90.7,71.7,30.11,South,180,7.8,-999.0,54,-99.99,,,0.00,Acu-Link.com,2013-07-18 20:11:00,
2013-07-18 15:27:00,89.2,70.9,30.10,South,180,9.8,-999.0,55,-99.99,,,0.00,Acu-Link.com,2013-07-18 20:27:00,
2013-07-18 15:42:00,89.2,71.5,30.09,SSW,202,11.9,-999.0,56,-99.99,,,0.00,Acu-Link.com,2013-07-18 20:42:00,
2013-07-18 15:57:00,88.5,71.3,30.09,South,180,9.4,-999.0,57,-99.99,,,0.00,Acu-Link.com,2013-07-18 20:57:00,
2013-07-18 16:12:00,89.2,70.9,30.08,South,180,7.4,-999.0,55,-99.99,,,0.00,Acu-Link.com,2013-07-18 21:12:00,
2013-07-18 16:27:00,90.9,70.8,30.07,South,180,10.3,-999.0,52,-99.99,,,0.00,Acu-Link.com,2013-07-18 21:27:00,
2013-07-18 16:43:00,91.0,71.5,30.07,SSW,202,7.4,-999.0,53,-99.99,,,0.00,Acu-Link.com,2013-07-18 21:43:00,
2013-07-18 16:58:00,91.0,70.9,30.06,SSE,157,11.4,-999.0,52,-99.99,,,0.00,Acu-Link.com,2013-07-18 21:58:00,
2013-07-18 17:13:00,90.1,70.7,30.06,SSW,202,8.9,-999.0,53,-99.99,,,0.00,Acu-Link.com,2013-07-18 22:13:00,
2013-07-18 17:28:00,89.6,70.2,30.05,SSW,202,6.7,-999.0,53,-99.99,,,0.00,Acu-Link.com,2013-07-18 22:28:00,
2013-07-18 17:44:00,90.1,70.1,30.04,SSW,202,10.3,-999.0,52,-99.99,,,0.00,Acu-Link.com,2013-07-18 22:44:00,
2013-07-18 17:59:00,89.4,71.1,30.03,SSW,202,8.3,-999.0,55,-99.99,,,0.00,Acu-Link.com,2013-07-18 22:59:00,
2013-07-18 18:14:00,90.3,70.8,30.03,SSW,202,7.8,-999.0,53,-99.99,,,0.00,Acu-Link.com,2013-07-18 23:14:00,
2013-07-18 18:29:00,90.9,70.8,30.02,South,180,5.8,-999.0,52,-99.99,,,0.00,Acu-Link.com,2013-07-18 23:29:00,
2013-07-18 18:44:00,89.8,70.9,30.01,SE,135,8.9,-999.0,54,-99.99,,,0.00,Acu-Link.com,2013-07-18 23:44:00,
2013-07-18 19:00:00,90.0,70.5,30.01,SE,135,11.0,-999.0,53,-99.99,,,0.00,Acu-Link.com,2013-07-19 00:00:00,
2013-07-18 19:15:00,90.7,70.0,30.01,South,180,7.4,-999.0,51,-99.99,,,0.00,Acu-Link.com,2013-07-19 00:15:00,
2013-07-18 19:30:00,88.7,69.3,30.01,SSE,157,6.3,-999.0,53,-99.99,,,0.00,Acu-Link.com,2013-07-19 00:30:00,
2013-07-18 19:45:00,89.1,69.7,30.01,SSE,157,8.9,-999.0,53,-99.99,,,0.00,Acu-Link.com,2013-07-19 00:45:00,
2013-07-18 20:00:00,88.0,68.7,30.00,SSW,202,11.4,-999.0,53,-99.99,,,0.00,Acu-Link.com,2013-07-19 01:00:00,
2013-07-18 20:16:00,88.2,69.4,30.01,SSW,202,5.1,-999.0,54,-99.99,,,0.00,Acu-Link.com,2013-07-19 01:16:00,
2013-07-18 20:31:00,86.9,69.3,30.01,South,180,7.4,-999.0,56,-99.99,,,0.00,Acu-Link.com,2013-07-19 01:31:00,
2013-07-18 20:46:00,86.2,69.1,30.01,SSW,202,7.8,-999.0,57,-99.99,,,0.00,Acu-Link.com,2013-07-19 01:46:00,
2013-07-18 21:01:00,85.1,69.6,30.02,South,180,0.0,-999.0,60,-99.99,,,0.00,Acu-Link.com,2013-07-19 02:01:00,
2013-07-18 21:16:00,84.0,70.5,30.03,SSW,202,0.0,-999.0,64,-99.99,,,0.00,Acu-Link.com,2013-07-19 02:16:00,
2013-07-18 21:32:00,83.5,70.4,30.03,South,180,0.0,-999.0,65,-99.99,,,0.00,Acu-Link.com,2013-07-19 02:32:00,
2013-07-18 21:47:00,83.1,70.1,30.03,South,180,0.0,-999.0,65,-99.99,,,0.00,Acu-Link.com,2013-07-19 02:47:00,
2013-07-18 22:02:00,82.4,70.3,30.04,SSE,157,0.0,-999.0,67,-99.99,,,0.00,Acu-Link.com,2013-07-19 03:02:00,
2013-07-18 22:17:00,82.2,70.1,30.05,ESE,112,0.0,-999.0,67,-99.99,,,0.00,Acu-Link.com,2013-07-19 03:17:00,
2013-07-18 22:33:00,82.0,70.4,30.05,ESE,112,0.0,-999.0,68,-99.99,,,0.00,Acu-Link.com,2013-07-19 03:33:00,
2013-07-18 22:48:00,81.5,70.3,30.06,South,180,0.0,-999.0,69,-99.99,,,0.00,Acu-Link.com,2013-07-19 03:48:00,
2013-07-18 23:03:00,81.0,70.7,30.06,South,180,0.0,-999.0,71,-99.99,,,0.00,Acu-Link.com,2013-07-19 04:03:00,
2013-07-18 23:18:00,80.8,70.9,30.06,South,180,0.0,-999.0,72,-99.99,,,0.00,Acu-Link.com,2013-07-19 04:18:00,
2013-07-18 23:33:00,80.6,70.7,30.06,South,180,0.0,-999.0,72,-99.99,,,0.00,Acu-Link.com,2013-07-19 04:33:00,
2013-07-18 23:49:00,80.8,70.5,30.06,South,180,0.0,-999.0,71,-99.99,,,0.00,Acu-Link.com,2013-07-19 04:49:00,